TimePDT,TemperatureF,Dew PointF,Humidity,Sea Level PressureIn,VisibilityMPH,Wind Direction,Wind SpeedMPH,Gust SpeedMPH,PrecipitationIn,Events,Conditions,WindDirDegrees,DateUTC
12:53 AM,71.1,35.1,27,29.91,10.0,NNW,5.8,-,N/A,,Clear,340,2013-08-22 07:53:00
1:53 AM,68.0,35.1,30,29.91,10.0,Calm,Calm,-,N/A,,Clear,0,2013-08-22 08:53:00
2:53 AM,69.1,35.1,29,29.91,10.0,North,5.8,-,N/A,,Partly Cloudy,350,2013-08-22 09:53:00
3:53 AM,69.1,35.1,29,29.90,10.0,NNW,5.8,-,N/A,,Clear,330,2013-08-22 10:53:00
4:53 AM,68.0,35.1,30,29.90,10.0,North,4.6,-,N/A,,Clear,350,2013-08-22 11:53:00
5:53 AM,66.9,37.0,33,29.90,10.0,NNW,6.9,-,N/A,,Clear,340,2013-08-22 12:53:00
6:53 AM,62.1,37.0,39,29.91,10.0,North,3.5,-,N/A,,Clear,10,2013-08-22 13:53:00
7:53 AM,71.1,37.0,29,29.91,10.0,North,9.2,-,N/A,,Clear,360,2013-08-22 14:53:00
8:53 AM,75.9,37.9,25,29.90,10.0,North,9.2,-,N/A,,Clear,350,2013-08-22 15:53:00
9:53 AM,78.1,39.0,25,29.89,10.0,North,5.8,-,N/A,,Clear,360,2013-08-22 16:53:00
10:53 AM,80.1,39.0,23,29.90,10.0,Calm,Calm,-,N/A,,Clear,0,2013-08-22 17:53:00
11:53 AM,84.0,37.9,19,29.88,10.0,Calm,Calm,-,N/A,,Clear,0,2013-08-22 18:53:00
12:53 PM,86.0,33.1,15,29.85,10.0,Calm,Calm,-,N/A,,Clear,0,2013-08-22 19:53:00
1:53 PM,89.1,33.1,14,29.83,10.0,ESE,5.8,-,N/A,,Clear,110,2013-08-22 20:53:00
2:53 PM,90.0,32.0,13,29.80,10.0,Calm,Calm,-,N/A,,Clear,0,2013-08-22 21:53:00
3:53 PM,90.0,37.0,15,29.78,10.0,SW,9.2,-,N/A,,Clear,220,2013-08-22 22:53:00
4:53 PM,87.1,39.0,18,29.76,10.0,WSW,9.2,-,N/A,,Clear,250,2013-08-22 23:53:00
5:53 PM,86.0,39.9,20,29.76,10.0,SW,11.5,-,N/A,,Clear,230,2013-08-23 00:53:00
6:53 PM,84.0,43.0,24,29.75,10.0,SW,9.2,-,N/A,,Clear,230,2013-08-23 01:53:00
7:53 PM,81.0,43.0,26,29.75,10.0,SW,6.9,-,N/A,,Clear,220,2013-08-23 02:53:00
8:53 PM,81.0,39.9,23,29.75,10.0,WSW,10.4,-,N/A,,Clear,240,2013-08-23 03:53:00
9:53 PM,75.0,39.9,28,29.75,10.0,South,8.1,-,N/A,,Clear,180,2013-08-23 04:53:00
10:53 PM,72.0,44.1,37,29.75,10.0,SE,8.1,-,N/A,,Clear,140,2013-08-23 05:53:00
11:53 PM,72.0,45.0,38,29.73,10.0,North,3.5,-,N/A,,Clear,10,2013-08-23 06:53:00